Aviation Digital Data Service (ADDS)

Output produced by TAFs form (1248 UTC 19 October 2017)
found at http://www.aviationweather.gov/adds/tafs/
 
KCSG 191151Z AUTO 00000KT 10SM CLR 12/07 A3026 RMK AO2 SLP245 T01170072 10139 20106 52013
KCSG 191120Z 1912/2012 VRB03KT P6SM SKC 
     FM191800 06004KT P6SM SKC 
     FM200000 00000KT P6SM SKC